Time;durP1;ratioP1;P1;durP2;ratioP2;P2;SDS_P1;SDS_P2;PMS_P1;PMS_P2;Temp;Humidity;BMP_temperature;BMP_pressure;BME280_temperature;BME280_humidity;BME280_pressure;Samples;Min_cycle;Max_cycle;Signal;HPM_P1;HPM_P2
2022/08/09 00:02:31;;;;;;;;;;;10.50;99.90;;;;;;5109621;27;20415;-57
2022/08/09 00:05:11;;;;;;;;;;;10.50;99.90;;;;;;5123256;27;19925;-58
2022/08/09 00:07:50;;;;;;;;;;;10.50;99.90;;;;;;5122628;27;20429;-56
2022/08/09 00:10:31;;;;;;;;;;;10.50;99.90;;;;;;5121883;27;19934;-57
2022/08/09 00:13:10;;;;;;;;;;;10.50;99.90;;;;;;5150664;27;20414;-56
2022/08/09 00:15:51;;;;;;;;;;;10.50;99.90;;;;;;5121053;27;20376;-56
2022/08/09 00:18:32;;;;;;;;;;;10.50;99.90;;;;;;5124511;27;19918;-57
2022/08/09 00:21:11;;;;;;;;;;;10.50;99.90;;;;;;5122135;27;20324;-56
2022/08/09 00:23:51;;;;;;;;;;;10.40;99.90;;;;;;5142713;27;20265;-56
2022/08/09 00:26:31;;;;;;;;;;;10.40;99.90;;;;;;5098747;27;19913;-56
2022/08/09 00:29:11;;;;;;;;;;;10.30;99.90;;;;;;5124176;27;20297;-56
2022/08/09 00:31:51;;;;;;;;;;;10.20;99.90;;;;;;5143093;27;20225;-57
2022/08/09 00:34:30;;;;;;;;;;;10.10;99.90;;;;;;5106705;27;19916;-56
2022/08/09 00:37:10;;;;;;;;;;;10.00;99.90;;;;;;5113870;27;20327;-56
2022/08/09 00:39:50;;;;;;;;;;;10.00;99.90;;;;;;5123826;27;19922;-57
2022/08/09 00:42:30;;;;;;;;;;;10.00;99.90;;;;;;5111887;27;19923;-56
2022/08/09 00:45:10;;;;;;;;;;;10.00;99.90;;;;;;5122561;27;19949;-57
2022/08/09 00:47:51;;;;;;;;;;;9.90;99.90;;;;;;5124736;27;19912;-56
2022/08/09 00:50:31;;;;;;;;;;;9.90;99.90;;;;;;5121699;27;19918;-56
2022/08/09 00:53:12;;;;;;;;;;;9.90;99.90;;;;;;5124599;27;19912;-58
2022/08/09 00:55:52;;;;;;;;;;;9.90;99.90;;;;;;5122095;27;20237;-56
2022/08/09 00:58:34;;;;;;;;;;;9.90;99.90;;;;;;5124563;27;19912;-56
2022/08/09 01:01:18;;;;;;;;;;;9.90;99.90;;;;;;5121205;27;19918;-57
2022/08/09 01:04:00;;;;;;;;;;;9.80;99.90;;;;;;5124512;27;20376;-57
2022/08/09 01:06:44;;;;;;;;;;;9.70;99.90;;;;;;5119039;27;20412;-57
2022/08/09 01:09:30;;;;;;;;;;;9.70;99.90;;;;;;5105233;27;20391;-56
2022/08/09 01:12:15;;;;;;;;;;;9.70;99.90;;;;;;5119636;27;19922;-56
2022/08/09 01:15:04;;;;;;;;;;;9.70;99.90;;;;;;5123592;27;19920;-53
2022/08/09 01:17:49;;;;;;;;;;;9.70;99.90;;;;;;5121109;27;19912;-56
2022/08/09 01:20:34;;;;;;;;;;;9.70;99.90;;;;;;5116572;27;19919;-58
2022/08/09 01:23:24;;;;;;;;;;;9.70;99.90;;;;;;5124763;27;19926;-58
2022/08/09 01:26:14;;;;;;;;;;;9.70;99.90;;;;;;5117806;27;19934;-57
2022/08/09 01:28:55;;;;;;;;;;;9.70;99.90;;;;;;5083162;28;19927;-57
2022/08/09 01:31:37;;;;;;;;;;;9.70;99.90;;;;;;5119054;27;19935;-57
2022/08/09 01:34:19;;;;;;;;;;;9.70;99.90;;;;;;5124944;27;19912;-56
2022/08/09 01:37:01;;;;;;;;;;;9.60;99.90;;;;;;5119098;27;19929;-58
2022/08/09 01:39:44;;;;;;;;;;;9.50;99.90;;;;;;5123396;27;19912;-57
2022/08/09 01:42:25;;;;;;;;;;;9.50;99.90;;;;;;5112644;27;20294;-56
2022/08/09 01:45:06;;;;;;;;;;;9.50;99.90;;;;;;5102712;27;20411;-57
2022/08/09 01:47:46;;;;;;;;;;;9.50;99.90;;;;;;5100964;27;20033;-56
2022/08/09 01:50:27;;;;;;;;;;;9.50;99.90;;;;;;5123990;27;20414;-56
2022/08/09 01:53:08;;;;;;;;;;;9.50;99.90;;;;;;5125177;27;19918;-57
2022/08/09 01:55:49;;;;;;;;;;;9.50;99.90;;;;;;5118367;27;20397;-56
2022/08/09 01:58:31;;;;;;;;;;;9.50;99.90;;;;;;5124184;27;19918;-56
2022/08/09 02:01:12;;;;;;;;;;;9.50;99.90;;;;;;5121130;27;20292;-58
2022/08/09 02:03:53;;;;;;;;;;;9.60;99.90;;;;;;5142535;27;19911;-56
2022/08/09 02:09:34;;;;;;;;;;;9.50;99.90;;;;;;5121679;27;19938;-56
2022/08/09 02:12:17;;;;;;;;;;;9.40;99.90;;;;;;5119504;27;19925;-57
2022/08/09 02:14:59;;;;;;;;;;;9.30;99.90;;;;;;5124324;27;19918;-56
2022/08/09 02:17:40;;;;;;;;;;;9.30;99.90;;;;;;5119067;27;19934;-57
2022/08/09 02:20:21;;;;;;;;;;;9.20;99.90;;;;;;5148031;27;19915;-56
2022/08/09 02:23:02;;;;;;;;;;;9.10;99.90;;;;;;5125153;27;19912;-57
2022/08/09 02:25:45;;;;;;;;;;;9.00;99.90;;;;;;5120155;27;19922;-57
2022/08/09 02:28:26;;;;;;;;;;;9.00;99.90;;;;;;5090353;27;19913;-56
2022/08/09 02:31:08;;;;;;;;;;;9.00;99.90;;;;;;5121472;27;19918;-56
2022/08/09 02:33:49;;;;;;;;;;;9.00;99.90;;;;;;5083612;28;19920;-57
2022/08/09 02:36:31;;;;;;;;;;;9.00;99.90;;;;;;5114639;27;19943;-58
2022/08/09 02:39:12;;;;;;;;;;;9.00;99.90;;;;;;5123947;27;19916;-56
2022/08/09 02:41:56;;;;;;;;;;;9.10;99.90;;;;;;5128080;27;19919;-57
2022/08/09 02:44:38;;;;;;;;;;;9.10;99.90;;;;;;5124789;27;19911;-56
2022/08/09 02:47:19;;;;;;;;;;;9.00;99.90;;;;;;5117996;27;19912;-56
2022/08/09 02:50:02;;;;;;;;;;;8.90;99.90;;;;;;5123831;27;19912;-57
2022/08/09 02:52:44;;;;;;;;;;;8.90;99.90;;;;;;5121518;27;20373;-56
2022/08/09 02:55:25;;;;;;;;;;;8.80;99.90;;;;;;5122386;27;19918;-57
2022/08/09 02:58:06;;;;;;;;;;;8.80;99.90;;;;;;5083673;28;19916;-56
2022/08/09 03:00:48;;;;;;;;;;;8.70;99.90;;;;;;5121864;27;20372;-56
2022/08/09 03:03:28;;;;;;;;;;;8.70;99.90;;;;;;5116316;27;19912;-57
2022/08/09 03:06:13;;;;;;;;;;;8.70;99.90;;;;;;5121616;27;19919;-57
2022/08/09 03:08:53;;;;;;;;;;;8.70;99.90;;;;;;5139729;27;20318;-56
2022/08/09 03:11:35;;;;;;;;;;;8.60;99.90;;;;;;5119462;27;19918;-56
2022/08/09 03:14:17;;;;;;;;;;;8.60;99.90;;;;;;5125057;27;20370;-57
2022/08/09 03:16:57;;;;;;;;;;;8.60;99.90;;;;;;5119301;27;19918;-56
2022/08/09 03:19:38;;;;;;;;;;;8.60;99.90;;;;;;5146760;27;19938;-57
2022/08/09 03:22:22;;;;;;;;;;;8.70;99.90;;;;;;5102288;27;19918;-54
2022/08/09 03:25:03;;;;;;;;;;;8.70;99.90;;;;;;5123412;27;19945;-57
2022/08/09 03:27:47;;;;;;;;;;;8.60;99.90;;;;;;5100621;27;19927;-57
2022/08/09 03:30:27;;;;;;;;;;;8.60;99.90;;;;;;5120246;27;19922;-56
2022/08/09 03:33:08;;;;;;;;;;;8.60;99.90;;;;;;5105210;27;19923;-58
2022/08/09 03:35:49;;;;;;;;;;;8.60;99.90;;;;;;5123145;27;19916;-56
2022/08/09 03:38:30;;;;;;;;;;;8.60;99.90;;;;;;5103924;27;19912;-56
2022/08/09 03:41:10;;;;;;;;;;;8.50;99.90;;;;;;5122484;27;19912;-57
2022/08/09 03:43:49;;;;;;;;;;;8.50;99.90;;;;;;5104098;27;19916;-57
2022/08/09 03:46:29;;;;;;;;;;;8.40;99.90;;;;;;5099199;27;20384;-57
2022/08/09 03:49:09;;;;;;;;;;;8.40;99.90;;;;;;5142350;27;19922;-57
2022/08/09 03:51:50;;;;;;;;;;;8.40;99.90;;;;;;5099056;27;19916;-57
2022/08/09 03:54:33;;;;;;;;;;;8.40;99.90;;;;;;5106978;27;19922;-57
2022/08/09 03:57:14;;;;;;;;;;;8.40;99.90;;;;;;5119476;27;20369;-57
2022/08/09 03:59:55;;;;;;;;;;;8.40;99.90;;;;;;5104032;27;19912;-57
2022/08/09 04:02:35;;;;;;;;;;;8.40;99.90;;;;;;5114297;27;19918;-57
2022/08/09 04:05:15;;;;;;;;;;;8.50;99.90;;;;;;5122666;27;19912;-56
2022/08/09 04:07:56;;;;;;;;;;;8.50;99.90;;;;;;5122834;27;19915;-57
2022/08/09 04:10:36;;;;;;;;;;;8.60;99.90;;;;;;5121792;27;19915;-57
2022/08/09 04:13:16;;;;;;;;;;;8.60;99.90;;;;;;5124935;27;19912;-57
2022/08/09 04:15:55;;;;;;;;;;;8.70;99.90;;;;;;5135739;27;20385;-57
2022/08/09 04:18:35;;;;;;;;;;;8.70;99.90;;;;;;5124358;27;19961;-57
2022/08/09 04:21:15;;;;;;;;;;;8.80;99.90;;;;;;5121664;27;20112;-57
2022/08/09 04:23:55;;;;;;;;;;;8.90;99.90;;;;;;5124842;27;19926;-56
2022/08/09 04:26:35;;;;;;;;;;;8.90;99.90;;;;;;5114621;27;19913;-56
2022/08/09 04:29:14;;;;;;;;;;;9.00;99.90;;;;;;5123871;27;19912;-57
2022/08/09 04:31:54;;;;;;;;;;;9.00;99.90;;;;;;5119588;27;20402;-57
2022/08/09 04:34:34;;;;;;;;;;;9.10;99.90;;;;;;5124552;27;20407;-57
2022/08/09 04:37:14;;;;;;;;;;;9.30;99.90;;;;;;5119392;27;19965;-56
2022/08/09 04:39:54;;;;;;;;;;;9.40;99.90;;;;;;5123674;27;19915;-57
2022/08/09 04:42:34;;;;;;;;;;;9.50;99.90;;;;;;5113350;27;19953;-57
2022/08/09 04:45:13;;;;;;;;;;;9.70;99.90;;;;;;5101452;27;20313;-57
2022/08/09 04:47:56;;;;;;;;;;;9.80;99.90;;;;;;5124657;27;19929;-57
2022/08/09 04:50:36;;;;;;;;;;;10.00;99.90;;;;;;5121977;27;19918;-57
2022/08/09 04:53:16;;;;;;;;;;;10.20;99.90;;;;;;5104779;27;19926;-57
2022/08/09 04:55:56;;;;;;;;;;;10.30;99.90;;;;;;5118907;27;19916;-57
2022/08/09 04:58:36;;;;;;;;;;;10.40;99.90;;;;;;5124560;27;19912;-56
2022/08/09 05:01:16;;;;;;;;;;;10.80;99.90;;;;;;5121099;27;19990;-57
2022/08/09 05:03:55;;;;;;;;;;;11.70;99.90;;;;;;5124954;27;20430;-57
2022/08/09 05:06:35;;;;;;;;;;;12.80;99.90;;;;;;5127684;27;19926;-55
2022/08/09 05:09:15;;;;;;;;;;;13.70;99.90;;;;;;5122206;27;19912;-55
2022/08/09 05:11:55;;;;;;;;;;;14.40;99.90;;;;;;5099296;27;19919;-57
2022/08/09 05:14:36;;;;;;;;;;;14.90;99.90;;;;;;5103697;27;20324;-56
2022/08/09 05:17:16;;;;;;;;;;;15.40;99.90;;;;;;5100095;27;19934;-57
2022/08/09 05:19:56;;;;;;;;;;;15.40;99.90;;;;;;5123725;27;19912;-56
2022/08/09 05:22:36;;;;;;;;;;;14.90;99.90;;;;;;5113515;27;19912;-56
2022/08/09 05:25:16;;;;;;;;;;;14.60;99.90;;;;;;5158887;27;20383;-56
2022/08/09 05:27:56;;;;;;;;;;;14.60;99.90;;;;;;5150335;27;19911;-57
2022/08/09 05:30:35;;;;;;;;;;;14.40;99.90;;;;;;5122079;27;19912;-57
2022/08/09 05:33:15;;;;;;;;;;;14.30;99.90;;;;;;5125587;27;19918;-56
2022/08/09 05:35:55;;;;;;;;;;;14.20;99.90;;;;;;5122925;27;19911;-56
2022/08/09 05:38:35;;;;;;;;;;;14.30;99.90;;;;;;5124293;27;19912;-56
2022/08/09 05:41:15;;;;;;;;;;;14.30;99.90;;;;;;5120836;27;20372;-57
2022/08/09 05:43:55;;;;;;;;;;;14.40;99.90;;;;;;5124496;27;19929;-56
2022/08/09 05:46:35;;;;;;;;;;;14.50;99.90;;;;;;5118670;27;19930;-58
2022/08/09 05:49:14;;;;;;;;;;;14.60;99.90;;;;;;5123964;27;19922;-58
2022/08/09 05:51:54;;;;;;;;;;;14.70;99.90;;;;;;5119632;27;19916;-56
2022/08/09 05:54:34;;;;;;;;;;;14.80;99.90;;;;;;5124527;27;20266;-56
2022/08/09 05:57:14;;;;;;;;;;;14.90;99.90;;;;;;5118201;27;20410;-56
2022/08/09 05:59:53;;;;;;;;;;;15.00;99.90;;;;;;5100325;27;19912;-57
2022/08/09 06:02:33;;;;;;;;;;;15.20;99.90;;;;;;5111727;27;20369;-57
2022/08/09 06:05:13;;;;;;;;;;;15.40;99.90;;;;;;5100659;27;19919;-56
2022/08/09 06:07:53;;;;;;;;;;;15.60;99.90;;;;;;5091573;27;20320;-56
2022/08/09 06:10:39;;;;;;;;;;;15.80;99.90;;;;;;5077942;28;19912;-58
2022/08/09 06:13:19;;;;;;;;;;;16.00;99.90;;;;;;5103735;27;19977;-56
2022/08/09 06:15:59;;;;;;;;;;;16.10;99.90;;;;;;5097048;27;19934;-56
2022/08/09 06:18:40;;;;;;;;;;;16.20;99.90;;;;;;5122654;27;19977;-57
2022/08/09 06:21:20;;;;;;;;;;;16.40;99.90;;;;;;5119018;27;19918;-57
2022/08/09 06:24:00;;;;;;;;;;;16.50;99.90;;;;;;5123717;27;19918;-57
2022/08/09 06:26:41;;;;;;;;;;;16.70;99.90;;;;;;5118098;27;19920;-56
2022/08/09 06:29:21;;;;;;;;;;;16.80;99.90;;;;;;5122675;27;19912;-56
2022/08/09 06:32:01;;;;;;;;;;;17.00;99.90;;;;;;5118507;27;19916;-56
2022/08/09 06:34:41;;;;;;;;;;;17.10;99.90;;;;;;5123822;27;19915;-56
2022/08/09 06:37:21;;;;;;;;;;;17.10;99.90;;;;;;5114426;27;19912;-56
2022/08/09 06:40:00;;;;;;;;;;;17.30;99.90;;;;;;5123619;27;19926;-57
2022/08/09 06:42:40;;;;;;;;;;;17.50;99.90;;;;;;5124291;27;19930;-56
2022/08/09 06:45:20;;;;;;;;;;;17.60;99.90;;;;;;5101597;27;19920;-55
2022/08/09 06:48:00;;;;;;;;;;;17.80;99.90;;;;;;5123310;27;20324;-57
2022/08/09 06:50:40;;;;;;;;;;;18.00;99.90;;;;;;5119577;27;20392;-56
2022/08/09 06:53:20;;;;;;;;;;;18.10;99.90;;;;;;5123940;27;19912;-55
2022/08/09 06:56:01;;;;;;;;;;;18.30;99.90;;;;;;5121594;27;19912;-56
2022/08/09 06:58:41;;;;;;;;;;;18.40;99.90;;;;;;5123598;27;19912;-57
2022/08/09 07:01:21;;;;;;;;;;;18.60;99.90;;;;;;5120335;27;19912;-57
2022/08/09 07:04:00;;;;;;;;;;;18.70;99.90;;;;;;5125451;27;19912;-55
2022/08/09 07:06:40;;;;;;;;;;;18.90;99.90;;;;;;5119164;27;19924;-56
2022/08/09 07:09:21;;;;;;;;;;;19.10;99.90;;;;;;5122375;27;19922;-56
2022/08/09 07:12:00;;;;;;;;;;;19.30;99.90;;;;;;5120212;27;20261;-56
2022/08/09 07:14:40;;;;;;;;;;;19.50;99.90;;;;;;5124981;27;20395;-56
2022/08/09 07:17:20;;;;;;;;;;;19.70;99.90;;;;;;5091453;27;19915;-57
2022/08/09 07:19:59;;;;;;;;;;;19.90;99.90;;;;;;5103441;27;19926;-56
2022/08/09 07:22:39;;;;;;;;;;;20.10;98.60;;;;;;5104288;27;19926;-56
2022/08/09 07:25:20;;;;;;;;;;;20.20;99.80;;;;;;5122743;27;19919;-56
2022/08/09 07:28:01;;;;;;;;;;;20.40;95.80;;;;;;5124580;27;19922;-56
2022/08/09 07:30:40;;;;;;;;;;;20.50;95.80;;;;;;5121766;27;19950;-57
2022/08/09 07:33:20;;;;;;;;;;;20.60;90.00;;;;;;5111378;27;19920;-58
2022/08/09 07:36:00;;;;;;;;;;;20.60;85.10;;;;;;5118482;27;19912;-57
2022/08/09 07:38:40;;;;;;;;;;;20.70;89.50;;;;;;5124047;27;19912;-55
2022/08/09 07:41:20;;;;;;;;;;;20.80;83.00;;;;;;5120964;27;19918;-56
2022/08/09 07:44:00;;;;;;;;;;;20.90;78.70;;;;;;5159373;27;19918;-56
2022/08/09 07:46:39;;;;;;;;;;;20.90;75.70;;;;;;5112866;27;19912;-56
2022/08/09 07:49:19;;;;;;;;;;;21.00;76.80;;;;;;5123596;27;19916;-57
2022/08/09 07:51:59;;;;;;;;;;;21.10;73.50;;;;;;5098752;27;20321;-58
2022/08/09 07:54:39;;;;;;;;;;;21.20;73.40;;;;;;5123856;27;20380;-56
2022/08/09 07:57:21;;;;;;;;;;;21.40;73.60;;;;;;5112102;27;19912;-57
2022/08/09 08:00:00;;;;;;;;;;;21.50;65.80;;;;;;5103347;27;20200;-57
2022/08/09 08:02:40;;;;;;;;;;;21.50;65.10;;;;;;5120328;27;19926;-56
2022/08/09 08:05:20;;;;;;;;;;;21.60;63.90;;;;;;5122336;27;19916;-57
2022/08/09 08:08:01;;;;;;;;;;;21.70;62.70;;;;;;5124665;27;19912;-57
2022/08/09 08:10:43;;;;;;;;;;;21.70;63.30;;;;;;5121851;27;19934;-59
2022/08/09 08:13:22;;;;;;;;;;;21.70;61.20;;;;;;5070926;28;19913;-56
2022/08/09 08:16:02;;;;;;;;;;;21.90;62.10;;;;;;5122688;27;19912;-56
2022/08/09 08:18:42;;;;;;;;;;;22.00;58.70;;;;;;5118696;27;20316;-56
2022/08/09 08:21:22;;;;;;;;;;;22.20;58.70;;;;;;5120631;27;19919;-56
2022/08/09 08:24:02;;;;;;;;;;;22.30;55.70;;;;;;5124926;27;19911;-57
2022/08/09 08:26:42;;;;;;;;;;;22.30;54.00;;;;;;5119778;27;19912;-57
2022/08/09 08:29:22;;;;;;;;;;;22.30;54.20;;;;;;5124917;27;19918;-56
2022/08/09 08:32:01;;;;;;;;;;;22.30;53.90;;;;;;5099471;27;20414;-56
2022/08/09 08:34:41;;;;;;;;;;;22.40;52.40;;;;;;5125064;27;20284;-57
2022/08/09 08:37:21;;;;;;;;;;;22.40;52.90;;;;;;5113113;27;19943;-57
2022/08/09 08:40:01;;;;;;;;;;;22.50;54.70;;;;;;5103039;27;19912;-56
2022/08/09 08:42:41;;;;;;;;;;;22.60;53.10;;;;;;5121736;27;19912;-57
2022/08/09 08:45:27;;;;;;;;;;;22.70;51.70;;;;;;5122583;27;19915;-56
2022/08/09 08:48:07;;;;;;;;;;;22.70;50.90;;;;;;5098028;27;19920;-58
2022/08/09 08:50:47;;;;;;;;;;;22.70;51.50;;;;;;5121719;27;19918;-56
2022/08/09 08:53:28;;;;;;;;;;;22.90;51.00;;;;;;5124573;27;20373;-56
2022/08/09 08:56:08;;;;;;;;;;;23.00;51.80;;;;;;5122004;27;19929;-57
2022/08/09 08:58:48;;;;;;;;;;;23.10;50.80;;;;;;5124888;27;20216;-59
2022/08/09 09:01:27;;;;;;;;;;;23.00;51.00;;;;;;5119928;27;19918;-58
2022/08/09 09:04:08;;;;;;;;;;;23.00;50.30;;;;;;5124830;27;19918;-58
2022/08/09 09:06:49;;;;;;;;;;;23.00;50.20;;;;;;5094197;27;20108;-58
2022/08/09 09:09:30;;;;;;;;;;;23.00;50.30;;;;;;5104562;27;20298;-58
2022/08/09 09:12:12;;;;;;;;;;;23.10;49.00;;;;;;5120385;27;19918;-58
2022/08/09 09:14:52;;;;;;;;;;;23.20;48.00;;;;;;5145173;27;19915;-58
2022/08/09 09:17:33;;;;;;;;;;;23.30;49.30;;;;;;5109877;27;20017;-58
2022/08/09 09:20:14;;;;;;;;;;;23.40;48.70;;;;;;5122529;27;19918;-59
2022/08/09 09:22:55;;;;;;;;;;;23.50;46.80;;;;;;5113078;27;20373;-58
2022/08/09 09:25:38;;;;;;;;;;;23.50;46.60;;;;;;5124473;27;19911;-58
2022/08/09 09:28:19;;;;;;;;;;;23.70;47.10;;;;;;5126606;27;20385;-58
2022/08/09 09:31:00;;;;;;;;;;;23.70;46.10;;;;;;5122567;27;20377;-58
2022/08/09 09:33:40;;;;;;;;;;;23.70;44.70;;;;;;5125519;27;19919;-58
2022/08/09 09:36:19;;;;;;;;;;;23.70;44.50;;;;;;5117408;27;19912;-57
2022/08/09 09:39:01;;;;;;;;;;;23.60;44.70;;;;;;5105128;27;20206;-58
2022/08/09 09:41:41;;;;;;;;;;;23.60;46.40;;;;;;5119945;27;20411;-57
2022/08/09 09:44:23;;;;;;;;;;;23.70;45.20;;;;;;5125719;27;19918;-56
2022/08/09 09:47:06;;;;;;;;;;;23.90;44.40;;;;;;5120948;27;19920;-57
2022/08/09 09:49:52;;;;;;;;;;;23.80;43.80;;;;;;5125189;27;20395;-56
2022/08/09 09:52:31;;;;;;;;;;;23.80;43.90;;;;;;5093694;27;20369;-56
2022/08/09 09:55:14;;;;;;;;;;;23.80;44.10;;;;;;5104421;27;19916;-56
2022/08/09 09:58:01;;;;;;;;;;;23.90;44.10;;;;;;5114027;27;19916;-57
2022/08/09 10:00:45;;;;;;;;;;;23.90;43.40;;;;;;5102906;27;19926;-57
2022/08/09 10:03:42;;;;;;;;;;;24.00;43.90;;;;;;5112575;27;19918;-57
2022/08/09 10:06:23;;;;;;;;;;;24.00;42.40;;;;;;5116738;27;19912;-57
2022/08/09 10:09:04;;;;;;;;;;;24.00;42.60;;;;;;5084915;28;20100;-56
2022/08/09 10:11:44;;;;;;;;;;;23.90;42.50;;;;;;5120829;27;19913;-56
2022/08/09 10:14:25;;;;;;;;;;;24.00;42.60;;;;;;5125384;27;19912;-57
2022/08/09 10:17:11;;;;;;;;;;;24.20;43.20;;;;;;5099299;27;19912;-57
2022/08/09 10:19:51;;;;;;;;;;;24.20;42.20;;;;;;5105342;27;19926;-57
2022/08/09 10:22:35;;;;;;;;;;;24.10;42.80;;;;;;5114140;27;20347;-60
2022/08/09 10:25:16;;;;;;;;;;;24.20;42.80;;;;;;5124409;27;19912;-56
2022/08/09 10:27:56;;;;;;;;;;;24.30;43.10;;;;;;5126363;27;19933;-56
2022/08/09 10:30:36;;;;;;;;;;;24.40;42.30;;;;;;5123497;27;19912;-57
2022/08/09 10:33:15;;;;;;;;;;;24.40;42.50;;;;;;5105736;27;20317;-56
2022/08/09 10:35:56;;;;;;;;;;;24.40;41.50;;;;;;5122070;27;19912;-57
2022/08/09 10:38:37;;;;;;;;;;;24.40;42.30;;;;;;5150979;27;19911;-56
2022/08/09 10:41:17;;;;;;;;;;;24.40;42.40;;;;;;5121736;27;19920;-57
2022/08/09 10:43:58;;;;;;;;;;;24.50;43.10;;;;;;5105806;27;19912;-57
2022/08/09 10:46:42;;;;;;;;;;;24.50;41.40;;;;;;5115981;27;19912;-57
2022/08/09 10:49:25;;;;;;;;;;;24.50;42.10;;;;;;5105916;27;20430;-57
2022/08/09 10:52:09;;;;;;;;;;;24.50;40.90;;;;;;5120063;27;19918;-56
2022/08/09 10:54:52;;;;;;;;;;;24.60;41.20;;;;;;5104885;27;19930;-56
2022/08/09 10:57:36;;;;;;;;;;;24.60;41.10;;;;;;5113722;27;20292;-57
2022/08/09 11:00:33;;;;;;;;;;;24.60;41.60;;;;;;5104703;27;20068;-59
2022/08/09 11:03:23;;;;;;;;;;;24.70;41.10;;;;;;5125419;27;19912;-57
2022/08/09 11:06:19;;;;;;;;;;;24.80;41.10;;;;;;5118924;27;19912;-57
2022/08/09 11:09:00;;;;;;;;;;;24.90;40.90;;;;;;5125251;27;20277;-57
2022/08/09 11:11:58;;;;;;;;;;;24.90;40.90;;;;;;5120035;27;19919;-57
2022/08/09 11:14:40;;;;;;;;;;;24.90;40.00;;;;;;5082585;27;19912;-59
2022/08/09 11:17:49;;;;;;;;;;;25.00;41.20;;;;;;5110818;27;19922;-57
2022/08/09 11:20:43;;;;;;;;;;;25.00;40.70;;;;;;5124272;27;19923;-57
2022/08/09 11:23:23;;;;;;;;;;;25.10;41.60;;;;;;5108326;27;19912;-57
2022/08/09 11:26:03;;;;;;;;;;;25.20;39.00;;;;;;5124459;27;20319;-57
2022/08/09 11:28:43;;;;;;;;;;;25.20;39.60;;;;;;5125781;27;19912;-57
2022/08/09 11:31:46;;;;;;;;;;;25.30;39.60;;;;;;5103360;27;20052;-59
2022/08/09 11:34:34;;;;;;;;;;;25.30;39.50;;;;;;5086504;27;19913;-57
2022/08/09 11:37:25;;;;;;;;;;;25.40;39.60;;;;;;5121630;27;19911;-58
2022/08/09 11:40:06;;;;;;;;;;;25.50;38.60;;;;;;5125270;27;19918;-57
2022/08/09 11:42:48;;;;;;;;;;;25.40;38.20;;;;;;5126163;27;19912;-57
2022/08/09 11:45:29;;;;;;;;;;;25.40;38.90;;;;;;5123872;27;20294;-57
2022/08/09 11:48:18;;;;;;;;;;;25.40;39.30;;;;;;5126397;27;19912;-56
2022/08/09 11:51:02;;;;;;;;;;;25.60;39.10;;;;;;5125151;27;19925;-55
2022/08/09 11:53:42;;;;;;;;;;;25.60;39.60;;;;;;5126315;27;19912;-56
2022/08/09 11:56:26;;;;;;;;;;;25.60;38.80;;;;;;5094233;27;20285;-56
2022/08/09 11:59:08;;;;;;;;;;;25.60;39.40;;;;;;5126190;27;19929;-56
2022/08/09 12:01:49;;;;;;;;;;;25.70;39.40;;;;;;5103328;27;20340;-56
2022/08/09 12:04:30;;;;;;;;;;;25.80;38.70;;;;;;5126523;27;19925;-56
2022/08/09 12:07:09;;;;;;;;;;;25.90;38.50;;;;;;5090574;27;19942;-56
2022/08/09 12:09:49;;;;;;;;;;;25.80;38.20;;;;;;5104865;27;20328;-56
2022/08/09 12:12:29;;;;;;;;;;;25.80;37.40;;;;;;5089550;27;20424;-56
2022/08/09 12:15:19;;;;;;;;;;;25.80;38.10;;;;;;5105106;27;19930;-56
2022/08/09 12:18:00;;;;;;;;;;;25.80;38.40;;;;;;5126340;27;20262;-58
2022/08/09 12:20:42;;;;;;;;;;;25.90;37.50;;;;;;5125104;27;19911;-56
2022/08/09 12:23:23;;;;;;;;;;;26.00;38.70;;;;;;5108608;27;20378;-56
2022/08/09 12:26:02;;;;;;;;;;;26.10;38.30;;;;;;5124062;27;19922;-56
2022/08/09 12:28:48;;;;;;;;;;;26.20;38.00;;;;;;5126073;27;19916;-56
2022/08/09 12:31:29;;;;;;;;;;;26.30;37.20;;;;;;5104379;27;19916;-57
2022/08/09 12:34:11;;;;;;;;;;;26.30;38.20;;;;;;5155800;27;19922;-56
2022/08/09 12:36:53;;;;;;;;;;;26.30;37.90;;;;;;5122600;27;19916;-56
2022/08/09 12:39:33;;;;;;;;;;;26.50;37.60;;;;;;5105958;27;19966;-56
2022/08/09 12:42:13;;;;;;;;;;;26.60;37.30;;;;;;5125452;27;19934;-56
2022/08/09 12:44:55;;;;;;;;;;;26.70;37.10;;;;;;5127050;27;19926;-56
2022/08/09 12:47:36;;;;;;;;;;;26.80;36.80;;;;;;5110723;27;20274;-56
2022/08/09 12:50:19;;;;;;;;;;;26.90;36.00;;;;;;5123901;27;19918;-58
2022/08/09 12:53:00;;;;;;;;;;;27.10;35.80;;;;;;5126161;27;19912;-58
2022/08/09 12:55:40;;;;;;;;;;;26.70;35.10;;;;;;5123217;27;19918;-56
2022/08/09 12:58:20;;;;;;;;;;;26.40;35.70;;;;;;5125336;27;19918;-55
2022/08/09 13:01:01;;;;;;;;;;;26.30;35.80;;;;;;5122129;27;20327;-56
2022/08/09 13:03:41;;;;;;;;;;;26.40;35.80;;;;;;5104468;27;19922;-57
2022/08/09 13:06:28;;;;;;;;;;;26.50;36.10;;;;;;5097209;27;19918;-56
2022/08/09 13:09:13;;;;;;;;;;;26.70;35.80;;;;;;5104059;27;19919;-57
2022/08/09 13:11:54;;;;;;;;;;;26.80;35.60;;;;;;5098934;27;19926;-57
2022/08/09 13:14:35;;;;;;;;;;;27.00;35.50;;;;;;5105083;27;19912;-56
2022/08/09 13:17:17;;;;;;;;;;;27.00;35.20;;;;;;5097132;27;20339;-56
2022/08/09 13:19:58;;;;;;;;;;;27.10;35.70;;;;;;5104877;27;20332;-58
2022/08/09 13:22:47;;;;;;;;;;;27.40;34.90;;;;;;5114905;27;20304;-56
2022/08/09 13:25:37;;;;;;;;;;;27.50;34.70;;;;;;5124018;27;19922;-58
2022/08/09 13:28:17;;;;;;;;;;;27.50;34.50;;;;;;5126828;27;20105;-56
2022/08/09 13:31:04;;;;;;;;;;;27.90;33.80;;;;;;5123920;27;19918;-56
2022/08/09 13:33:44;;;;;;;;;;;28.00;34.00;;;;;;5125845;27;20332;-56
2022/08/09 13:36:24;;;;;;;;;;;28.40;33.90;;;;;;5096493;27;19912;-58
2022/08/09 13:39:05;;;;;;;;;;;28.60;32.90;;;;;;5126661;27;19938;-56
2022/08/09 13:41:45;;;;;;;;;;;28.80;33.30;;;;;;5119522;27;20318;-57
2022/08/09 13:44:25;;;;;;;;;;;28.90;32.80;;;;;;5106814;27;19912;-56
2022/08/09 13:47:06;;;;;;;;;;;29.00;32.30;;;;;;5098007;27;19926;-57
2022/08/09 13:49:46;;;;;;;;;;;29.10;31.90;;;;;;5103375;27;19942;-55
2022/08/09 13:52:28;;;;;;;;;;;29.30;31.90;;;;;;5117829;27;19915;-56
2022/08/09 13:55:08;;;;;;;;;;;29.00;32.00;;;;;;5123954;27;20399;-55
2022/08/09 13:57:49;;;;;;;;;;;28.70;32.20;;;;;;5137919;27;19911;-55
2022/08/09 14:00:29;;;;;;;;;;;28.50;32.70;;;;;;5122605;27;19927;-56
2022/08/09 14:03:08;;;;;;;;;;;28.40;32.60;;;;;;5125083;27;19911;-56
2022/08/09 14:05:48;;;;;;;;;;;28.50;32.90;;;;;;5118031;27;19920;-55
2022/08/09 14:08:28;;;;;;;;;;;28.80;32.50;;;;;;5125483;27;20348;-56
2022/08/09 14:11:08;;;;;;;;;;;28.60;32.70;;;;;;5101853;27;19916;-55
2022/08/09 14:13:48;;;;;;;;;;;28.50;32.80;;;;;;5125058;27;19919;-58
2022/08/09 14:16:27;;;;;;;;;;;28.50;32.40;;;;;;5099656;27;19954;-56
2022/08/09 14:19:08;;;;;;;;;;;28.30;32.50;;;;;;5125314;27;19922;-55
2022/08/09 14:21:47;;;;;;;;;;;28.50;33.80;;;;;;5119724;27;20399;-57
2022/08/09 14:24:27;;;;;;;;;;;28.80;31.80;;;;;;5087059;27;19919;-55
2022/08/09 14:27:07;;;;;;;;;;;29.10;32.40;;;;;;5131707;27;19918;-55
2022/08/09 14:29:47;;;;;;;;;;;29.30;31.80;;;;;;5103970;27;19982;-55
2022/08/09 14:32:27;;;;;;;;;;;29.20;31.90;;;;;;5099393;27;19965;-55
2022/08/09 14:35:07;;;;;;;;;;;28.80;32.30;;;;;;5103517;27;19912;-55
2022/08/09 14:37:48;;;;;;;;;;;28.70;32.30;;;;;;5125383;27;19920;-55
2022/08/09 14:40:28;;;;;;;;;;;28.90;32.60;;;;;;5123213;27;19919;-55
2022/08/09 14:43:07;;;;;;;;;;;29.30;31.40;;;;;;5125829;27;19916;-55
2022/08/09 14:45:47;;;;;;;;;;;29.50;31.40;;;;;;5100589;27;20141;-54
2022/08/09 14:48:27;;;;;;;;;;;29.40;30.80;;;;;;5090886;27;19912;-55
2022/08/09 14:51:07;;;;;;;;;;;29.20;31.70;;;;;;5123360;27;19912;-55
2022/08/09 14:53:48;;;;;;;;;;;29.30;31.60;;;;;;5105394;27;20344;-55
2022/08/09 14:56:28;;;;;;;;;;;29.00;31.20;;;;;;5116816;27;20270;-56
2022/08/09 14:59:09;;;;;;;;;;;28.70;31.70;;;;;;5126032;27;19922;-57
2022/08/09 15:01:49;;;;;;;;;;;28.80;32.10;;;;;;5120486;27;19920;-55
2022/08/09 15:04:29;;;;;;;;;;;28.80;32.00;;;;;;5087937;27;20427;-57
2022/08/09 15:07:09;;;;;;;;;;;28.80;32.10;;;;;;5108844;27;19922;-55
2022/08/09 15:09:49;;;;;;;;;;;29.20;32.30;;;;;;5125532;27;19922;-54
2022/08/09 15:12:29;;;;;;;;;;;29.70;30.80;;;;;;5114423;27;19912;-55
2022/08/09 15:15:09;;;;;;;;;;;29.30;30.90;;;;;;5104558;27;19916;-57
2022/08/09 15:17:50;;;;;;;;;;;29.00;32.20;;;;;;5085761;27;19935;-55
2022/08/09 15:20:31;;;;;;;;;;;28.50;32.20;;;;;;5103102;27;19912;-55
2022/08/09 15:23:11;;;;;;;;;;;28.10;32.30;;;;;;5126694;27;19919;-55
2022/08/09 15:25:51;;;;;;;;;;;27.70;33.00;;;;;;5137889;27;19911;-55
2022/08/09 15:28:31;;;;;;;;;;;27.30;34.30;;;;;;5126217;27;19912;-55
2022/08/09 15:31:11;;;;;;;;;;;27.10;33.70;;;;;;5102889;27;19954;-54
2022/08/09 15:33:52;;;;;;;;;;;27.00;34.40;;;;;;5105221;27;19930;-55
2022/08/09 15:36:32;;;;;;;;;;;27.00;33.80;;;;;;5096503;27;20410;-55
2022/08/09 15:39:14;;;;;;;;;;;27.20;34.70;;;;;;5085795;28;19927;-56
2022/08/09 15:41:53;;;;;;;;;;;28.00;33.50;;;;;;5080820;28;20378;-55
2022/08/09 15:44:33;;;;;;;;;;;28.70;33.00;;;;;;5125949;27;19912;-55
2022/08/09 15:47:13;;;;;;;;;;;29.30;32.10;;;;;;5096151;27;19912;-55